createdAt,value
2023-01-17T00:00:00.058Z,2.20
2023-01-17T00:02:26.769Z,2.20
2023-01-17T00:05:12.072Z,2.30
2023-01-17T00:07:57.451Z,2.30
2023-01-17T00:10:25.274Z,2.00
2023-01-17T00:12:52.334Z,1.70
2023-01-17T00:15:23.589Z,1.30
2023-01-17T00:17:50.629Z,1.20
2023-01-17T00:20:37.430Z,1.00
2023-01-17T00:23:26.685Z,0.90
2023-01-17T00:26:05.597Z,0.90
2023-01-17T00:28:33.539Z,0.80
2023-01-17T00:31:00.480Z,0.80
2023-01-17T00:33:27.178Z,0.80
2023-01-17T00:35:54.282Z,0.70
2023-01-17T00:38:22.200Z,0.60
2023-01-17T00:40:49.479Z,0.70
2023-01-17T00:43:36.063Z,0.60
2023-01-17T00:46:21.698Z,0.60
2023-01-17T00:49:06.939Z,0.60
2023-01-17T00:51:52.908Z,0.70
2023-01-17T00:54:37.974Z,0.70
2023-01-17T00:57:24.276Z,0.70
2023-01-17T01:00:09.247Z,0.70
2023-01-17T01:02:55.172Z,0.70
2023-01-17T01:05:41.026Z,0.70
2023-01-17T01:08:38.619Z,0.70
2023-01-17T01:11:25.292Z,0.70
2023-01-17T01:14:10.679Z,0.70
2023-01-17T01:16:56.097Z,0.70
2023-01-17T01:19:41.148Z,0.70
2023-01-17T01:22:26.507Z,0.70
2023-01-17T01:25:11.989Z,0.80
2023-01-17T01:27:57.421Z,0.80
2023-01-17T01:30:42.849Z,0.80
2023-01-17T01:33:19.175Z,0.80
2023-01-17T01:35:46.777Z,0.90
2023-01-17T01:38:13.625Z,0.90
2023-01-17T01:40:44.377Z,0.90
2023-01-17T01:43:12.195Z,0.90
2023-01-17T01:45:38.986Z,0.90
2023-01-17T01:48:11.231Z,2.50
2023-01-17T01:50:38.011Z,1.00
2023-01-17T01:53:06.291Z,1.00
2023-01-17T01:55:34.634Z,2.10
2023-01-17T01:58:03.626Z,1.00
2023-01-17T02:00:33.572Z,1.10
2023-01-17T02:03:02.638Z,1.10
2023-01-17T02:05:29.684Z,1.10
2023-01-17T02:07:59.395Z,1.10
2023-01-17T02:10:26.138Z,1.10
2023-01-17T02:12:53.206Z,1.10
2023-01-17T02:15:20.341Z,1.20
2023-01-17T02:18:05.302Z,1.20
2023-01-17T02:20:32.051Z,1.20
2023-01-17T02:22:58.700Z,1.20
2023-01-17T02:25:43.515Z,1.20
2023-01-17T02:28:36.849Z,1.20
2023-01-17T02:31:15.053Z,1.20
2023-01-17T02:33:50.986Z,3.00
2023-01-17T02:36:26.089Z,1.20
2023-01-17T02:38:59.334Z,1.20
2023-01-17T02:41:42.942Z,1.20
2023-01-17T02:44:10.616Z,1.20
2023-01-17T02:46:50.499Z,1.20
2023-01-17T02:49:19.684Z,1.20
2023-01-17T02:51:51.428Z,1.20
2023-01-17T02:54:27.604Z,1.20
2023-01-17T02:57:06.602Z,2.00
2023-01-17T02:59:36.042Z,1.10
2023-01-17T03:02:23.043Z,1.10
2023-01-17T03:04:54.154Z,1.10
2023-01-17T03:07:22.891Z,1.10
2023-01-17T03:09:53.523Z,1.10
2023-01-17T03:12:20.915Z,1.10
2023-01-17T03:14:47.551Z,1.10
2023-01-17T03:17:14.226Z,1.10
2023-01-17T03:19:40.964Z,1.10
2023-01-17T03:22:07.562Z,1.10
2023-01-17T03:24:34.293Z,1.10
2023-01-17T03:27:00.983Z,-0.90
2023-01-17T03:29:27.659Z,1.10
2023-01-17T03:31:54.361Z,1.10
2023-01-17T03:34:21.109Z,1.10
2023-01-17T03:36:47.763Z,1.00
2023-01-17T03:39:14.426Z,1.00
2023-01-17T03:41:41.065Z,0.90
2023-01-17T03:44:07.863Z,0.90
2023-01-17T03:46:34.502Z,0.90
2023-01-17T03:49:01.152Z,0.80
2023-01-17T03:51:27.883Z,0.80
2023-01-17T03:53:54.564Z,0.80
2023-01-17T03:56:21.295Z,0.70
2023-01-17T03:58:47.927Z,0.70
2023-01-17T04:01:14.780Z,0.70
2023-01-17T04:03:41.502Z,0.60
2023-01-17T04:06:08.193Z,0.60
2023-01-17T04:08:34.870Z,1.00
2023-01-17T04:11:01.450Z,0.50
2023-01-17T04:13:28.144Z,1.50
2023-01-17T04:15:54.829Z,0.40
2023-01-17T04:18:22.997Z,0.40
2023-01-17T04:20:49.694Z,0.40
2023-01-17T04:23:16.540Z,0.30
2023-01-17T04:25:43.405Z,0.20
2023-01-17T04:28:10.327Z,0.10
2023-01-17T04:30:37.159Z,0.20
2023-01-17T04:33:03.919Z,0.20
2023-01-17T04:35:31.208Z,0.10
2023-01-17T04:37:57.838Z,0.20
2023-01-17T04:40:24.936Z,0.30
2023-01-17T04:42:51.491Z,0.40
2023-01-17T04:45:18.134Z,0.40
2023-01-17T04:47:44.785Z,2.70
2023-01-17T04:50:11.700Z,3.20
2023-01-17T04:52:38.307Z,0.50
2023-01-17T04:55:05.380Z,0.50
2023-01-17T04:57:31.983Z,0.60
2023-01-17T04:59:58.618Z,0.60
2023-01-17T05:02:25.269Z,2.10
2023-01-17T05:04:52.202Z,0.70
2023-01-17T05:07:18.815Z,0.60
2023-01-17T05:09:45.405Z,0.70
2023-01-17T05:12:12.065Z,0.70
2023-01-17T05:14:38.645Z,0.70
2023-01-17T05:17:05.269Z,0.80
2023-01-17T05:19:31.901Z,0.80
2023-01-17T05:22:04.167Z,0.80
2023-01-17T05:24:31.209Z,0.80
2023-01-17T05:27:02.916Z,0.70
2023-01-17T05:29:30.279Z,0.70
2023-01-17T05:31:56.989Z,0.70
2023-01-17T05:34:23.673Z,0.70
2023-01-17T05:36:50.384Z,0.70
2023-01-17T05:39:16.936Z,0.80
2023-01-17T05:41:43.543Z,0.70
2023-01-17T05:44:10.253Z,0.70
2023-01-17T05:46:36.875Z,0.70
2023-01-17T05:49:03.549Z,0.60
2023-01-17T05:51:30.264Z,0.60
2023-01-17T05:53:56.840Z,0.60
2023-01-17T05:56:23.405Z,0.60
2023-01-17T05:58:49.969Z,0.50
2023-01-17T06:01:17.638Z,0.50
2023-01-17T06:03:44.253Z,0.40
2023-01-17T06:06:10.845Z,0.40
2023-01-17T06:08:37.509Z,0.40
2023-01-17T06:11:04.251Z,0.30
2023-01-17T06:13:30.982Z,0.30
2023-01-17T06:16:02.648Z,0.30
2023-01-17T06:18:29.996Z,0.30
2023-01-17T06:20:56.730Z,0.20
2023-01-17T06:23:23.959Z,0.20
2023-01-17T06:25:50.687Z,0.10
2023-01-17T06:28:18.419Z,0.00
2023-01-17T06:30:45.137Z,0.00
2023-01-17T06:33:12.293Z,0.10
2023-01-17T06:35:40.940Z,0.10
2023-01-17T06:38:07.579Z,0.00
2023-01-17T06:40:34.258Z,0.30
2023-01-17T06:43:01.880Z,0.20
2023-01-17T06:45:29.903Z,0.30
2023-01-17T06:47:58.627Z,0.00
2023-01-17T06:50:25.972Z,0.00
2023-01-17T06:52:57.223Z,-0.10
2023-01-17T06:55:24.286Z,-0.10
2023-01-17T06:57:51.233Z,-0.10
2023-01-17T07:00:18.076Z,-0.10
2023-01-17T07:02:47.846Z,-0.10
2023-01-17T07:05:16.310Z,-0.10
2023-01-17T07:07:43.519Z,-0.10
2023-01-17T07:10:10.773Z,1.10
2023-01-17T07:12:37.509Z,-0.10
2023-01-17T07:15:04.561Z,0.00
2023-01-17T07:17:31.197Z,0.00
2023-01-17T07:19:57.943Z,0.00
2023-01-17T07:22:24.628Z,-0.10
2023-01-17T07:24:53.529Z,-0.20
2023-01-17T07:27:20.168Z,-0.40
2023-01-17T07:29:46.757Z,-0.50
2023-01-17T07:32:13.422Z,-0.60
2023-01-17T07:34:40.020Z,-0.70
2023-01-17T07:37:06.680Z,-0.70
2023-01-17T07:39:33.415Z,-0.80
2023-01-17T07:42:00.175Z,-0.80
2023-01-17T07:44:26.836Z,-0.80
2023-01-17T07:46:54.177Z,-0.80
2023-01-17T07:49:20.804Z,-0.80
2023-01-17T07:51:47.663Z,-0.70
2023-01-17T07:54:14.302Z,-0.80
2023-01-17T07:56:45.530Z,-0.70
2023-01-17T07:59:12.163Z,-0.70
2023-01-17T08:01:38.962Z,-0.70
2023-01-17T08:04:05.559Z,-0.70
2023-01-17T08:06:32.269Z,-0.60
2023-01-17T08:08:59.624Z,-0.60
2023-01-17T08:11:26.528Z,-0.50
2023-01-17T08:13:59.475Z,-0.40
2023-01-17T08:16:27.057Z,-0.30
2023-01-17T08:18:54.463Z,0.50
2023-01-17T08:21:21.424Z,-0.40
2023-01-17T08:23:48.984Z,-0.40
2023-01-17T08:26:21.426Z,1.80
2023-01-17T08:28:49.001Z,-0.30
2023-01-17T08:31:17.612Z,-0.30
2023-01-17T08:33:44.347Z,-0.30
2023-01-17T08:36:10.969Z,-0.20
2023-01-17T08:38:37.702Z,-0.20
2023-01-17T08:41:04.408Z,-0.10
2023-01-17T08:43:31.084Z,-0.10
2023-01-17T08:45:57.847Z,-0.10
2023-01-17T08:48:24.697Z,-0.10
2023-01-17T08:50:51.820Z,-0.10
2023-01-17T08:53:21.670Z,0.00
2023-01-17T08:55:48.378Z,0.00
2023-01-17T08:58:15.136Z,0.00
2023-01-17T09:00:41.938Z,0.00
2023-01-17T09:03:12.244Z,-0.10
2023-01-17T09:05:38.916Z,-0.10
2023-01-17T09:08:05.656Z,-0.10
2023-01-17T09:10:32.303Z,-0.10
2023-01-17T09:12:59.039Z,-0.20
2023-01-17T09:15:25.980Z,-0.20
2023-01-17T09:17:56.615Z,-0.20
2023-01-17T09:20:23.954Z,-0.10
2023-01-17T09:22:51.018Z,-0.10
2023-01-17T09:25:17.778Z,0.00
2023-01-17T09:27:44.964Z,0.00
2023-01-17T09:30:11.842Z,0.10
2023-01-17T09:32:38.560Z,0.10
2023-01-17T09:35:07.408Z,0.20
2023-01-17T09:37:34.127Z,0.20
2023-01-17T09:40:00.803Z,0.20
2023-01-17T09:42:35.803Z,0.20
2023-01-17T09:45:03.008Z,0.40
2023-01-17T09:47:40.546Z,0.40
2023-01-17T09:50:15.466Z,0.50
2023-01-17T09:52:42.081Z,0.50
2023-01-17T09:55:13.025Z,0.60
2023-01-17T09:57:39.639Z,0.60
2023-01-17T10:00:25.190Z,0.80
2023-01-17T10:03:10.886Z,0.70
2023-01-17T10:05:37.652Z,0.80
2023-01-17T10:08:24.947Z,0.90
2023-01-17T10:10:55.151Z,1.00
2023-01-17T10:13:40.618Z,1.10
2023-01-17T10:16:13.494Z,1.20
2023-01-17T10:18:54.267Z,1.30
2023-01-17T10:21:20.959Z,1.30
2023-01-17T10:23:50.732Z,1.40
2023-01-17T10:26:18.953Z,1.40
2023-01-17T10:28:48.721Z,1.50
2023-01-17T10:31:22.560Z,1.60
2023-01-17T10:33:53.660Z,1.60
2023-01-17T10:36:20.784Z,1.70
2023-01-17T10:38:49.345Z,2.10
2023-01-17T10:41:36.312Z,1.80
2023-01-17T10:44:06.140Z,1.90
2023-01-17T10:46:36.039Z,2.00
2023-01-17T10:49:03.663Z,2.10
2023-01-17T10:51:43.934Z,2.10
2023-01-17T10:54:10.593Z,2.20
2023-01-17T10:56:39.247Z,2.40
2023-01-17T10:59:09.031Z,2.50
2023-01-17T11:01:35.843Z,2.60
2023-01-17T11:04:03.094Z,3.70
2023-01-17T11:06:33.244Z,2.90
2023-01-17T11:09:02.200Z,3.00
2023-01-17T11:11:33.159Z,3.10
2023-01-17T11:14:03.781Z,3.10
2023-01-17T11:16:31.480Z,3.10
2023-01-17T11:19:10.358Z,3.20
2023-01-17T11:21:38.558Z,3.30
2023-01-17T11:24:10.198Z,3.30
2023-01-17T11:26:38.469Z,3.40
2023-01-17T11:29:24.048Z,3.40
2023-01-17T11:31:50.795Z,3.40
2023-01-17T11:34:18.997Z,3.50
2023-01-17T11:36:45.665Z,3.60
2023-01-17T11:39:18.549Z,3.60
2023-01-17T11:41:46.083Z,3.60
2023-01-17T11:44:29.829Z,3.60
2023-01-17T11:47:11.562Z,3.60
2023-01-17T11:49:39.327Z,3.60
2023-01-17T11:52:09.765Z,3.70
2023-01-17T11:54:40.448Z,3.70
2023-01-17T11:57:17.732Z,3.70
2023-01-17T11:59:44.722Z,3.60
2023-01-17T12:02:31.936Z,3.50
2023-01-17T12:05:18.398Z,3.40
2023-01-17T12:07:51.829Z,3.30
2023-01-17T12:10:27.580Z,3.20
2023-01-17T12:13:19.196Z,3.20
2023-01-17T12:15:50.986Z,3.10
2023-01-17T12:18:36.442Z,3.00
2023-01-17T12:21:09.530Z,3.00
2023-01-17T12:23:48.248Z,2.90
2023-01-17T12:26:33.097Z,3.00
2023-01-17T12:29:26.725Z,3.00
2023-01-17T12:32:03.097Z,2.90
2023-01-17T12:34:29.694Z,2.90
2023-01-17T12:37:02.134Z,2.90
2023-01-17T12:39:33.096Z,3.00
2023-01-17T12:42:08.735Z,2.90
2023-01-17T12:44:43.530Z,2.90
2023-01-17T12:47:10.888Z,3.00
2023-01-17T12:49:57.776Z,3.10
2023-01-17T12:52:38.421Z,3.10
2023-01-17T12:55:13.390Z,3.10
2023-01-17T12:57:42.975Z,3.10
2023-01-17T13:00:13.068Z,3.10
2023-01-17T13:02:58.493Z,3.10
2023-01-17T13:05:29.592Z,3.10
2023-01-17T13:08:06.571Z,3.10
2023-01-17T13:10:35.441Z,3.10
2023-01-17T13:13:04.652Z,3.20
2023-01-17T13:15:37.534Z,3.10
2023-01-17T13:18:10.753Z,3.10
2023-01-17T13:20:46.171Z,3.20
2023-01-17T13:23:25.351Z,3.20
2023-01-17T13:25:52.272Z,3.20
2023-01-17T13:28:24.811Z,3.20
2023-01-17T13:31:03.829Z,3.20
2023-01-17T13:33:40.929Z,3.20
2023-01-17T13:36:30.001Z,3.10
2023-01-17T13:38:59.405Z,3.10
2023-01-17T13:41:55.315Z,3.10
2023-01-17T13:44:24.788Z,3.10
2023-01-17T13:47:00.737Z,3.10
2023-01-17T13:49:31.537Z,3.00
2023-01-17T13:52:03.309Z,3.00
2023-01-17T13:54:33.450Z,3.00
2023-01-17T13:57:18.836Z,2.90
2023-01-17T13:59:45.384Z,2.90
2023-01-17T14:02:30.350Z,2.90
2023-01-17T14:05:16.191Z,2.90
2023-01-17T14:07:42.765Z,2.80
2023-01-17T14:10:23.492Z,2.80
2023-01-17T14:12:51.141Z,2.80
2023-01-17T14:15:22.395Z,2.80
2023-01-17T14:17:56.027Z,2.80
2023-01-17T14:20:25.658Z,2.80
2023-01-17T14:22:54.117Z,2.70
2023-01-17T14:25:40.362Z,2.70
2023-01-17T14:28:22.120Z,2.70
2023-01-17T14:30:54.227Z,2.70
2023-01-17T14:33:25.813Z,2.70
2023-01-17T14:35:54.383Z,2.60
2023-01-17T14:38:22.288Z,2.60
2023-01-17T14:40:53.333Z,2.50
2023-01-17T14:43:21.252Z,2.50
2023-01-17T14:45:48.166Z,2.50
2023-01-17T14:48:17.861Z,2.50
2023-01-17T14:50:45.142Z,2.50
2023-01-17T14:53:11.917Z,2.40
2023-01-17T14:55:58.862Z,2.50
2023-01-17T14:58:27.080Z,2.50
2023-01-17T15:00:58.341Z,2.40
2023-01-17T15:03:25.065Z,2.50
2023-01-17T15:05:53.378Z,2.40
2023-01-17T15:08:22.125Z,2.40
2023-01-17T15:10:51.621Z,2.40
2023-01-17T15:13:27.697Z,2.40
2023-01-17T15:16:22.557Z,2.40
2023-01-17T15:18:49.649Z,2.30
2023-01-17T15:21:19.237Z,2.30
2023-01-17T15:23:47.397Z,2.30
2023-01-17T15:26:15.848Z,2.30
2023-01-17T15:28:44.806Z,2.30
2023-01-17T15:31:11.519Z,2.20
2023-01-17T15:33:39.488Z,2.20
2023-01-17T15:36:07.649Z,2.20
2023-01-17T15:38:39.287Z,2.20
2023-01-17T15:41:12.423Z,2.20
2023-01-17T15:43:39.855Z,2.20
2023-01-17T15:46:06.565Z,2.20
2023-01-17T15:48:44.405Z,2.20
2023-01-17T15:51:12.639Z,2.10
2023-01-17T15:53:41.095Z,2.10
2023-01-17T15:56:21.288Z,2.10
2023-01-17T15:58:50.187Z,2.00
2023-01-17T16:01:23.820Z,2.10
2023-01-17T16:03:56.351Z,2.10
2023-01-17T16:06:45.767Z,2.10
2023-01-17T16:09:20.161Z,2.10
2023-01-17T16:11:46.726Z,2.00
2023-01-17T16:14:13.415Z,2.00
2023-01-17T16:16:40.158Z,2.00
2023-01-17T16:19:06.964Z,2.00
2023-01-17T16:21:33.531Z,2.00
2023-01-17T16:24:00.379Z,2.00
2023-01-17T16:26:28.983Z,2.00
2023-01-17T16:28:55.740Z,2.00
2023-01-17T16:31:22.647Z,2.10
2023-01-17T16:33:49.762Z,2.00
2023-01-17T16:36:17.033Z,2.00
2023-01-17T16:38:44.559Z,2.00
2023-01-17T16:41:11.249Z,0.70
2023-01-17T16:43:37.860Z,1.90
2023-01-17T16:46:05.005Z,1.80
2023-01-17T16:48:32.194Z,2.60
2023-01-17T16:50:59.322Z,1.70
2023-01-17T16:53:28.043Z,1.70
2023-01-17T16:55:56.008Z,1.70
2023-01-17T16:58:22.707Z,1.80
2023-01-17T17:00:49.371Z,1.80
2023-01-17T17:03:17.381Z,3.70
2023-01-17T17:05:47.036Z,1.70
2023-01-17T17:08:14.322Z,1.60
2023-01-17T17:10:40.972Z,1.60
2023-01-17T17:13:07.631Z,1.60
2023-01-17T17:15:34.340Z,1.50
2023-01-17T17:18:01.023Z,1.50
2023-01-17T17:20:27.893Z,1.50
2023-01-17T17:22:54.660Z,1.50
2023-01-17T17:25:21.338Z,1.40
2023-01-17T17:27:47.970Z,1.40
2023-01-17T17:30:14.709Z,1.20
2023-01-17T17:32:44.563Z,1.10
2023-01-17T17:35:11.167Z,0.90
2023-01-17T17:37:37.960Z,0.80
2023-01-17T17:40:05.412Z,1.20
2023-01-17T17:42:32.104Z,0.50
2023-01-17T17:44:58.712Z,0.40
2023-01-17T17:47:25.287Z,0.30
2023-01-17T17:49:51.973Z,0.30
2023-01-17T17:52:18.708Z,0.30
2023-01-17T17:54:45.470Z,0.20
2023-01-17T17:57:12.155Z,0.10
2023-01-17T17:59:38.921Z,0.10
2023-01-17T18:02:06.625Z,0.10
2023-01-17T18:04:33.271Z,0.00
2023-01-17T18:06:59.962Z,-0.10
2023-01-17T18:09:26.619Z,-0.10
2023-01-17T18:11:53.284Z,-0.10
2023-01-17T18:14:22.162Z,-0.10
2023-01-17T18:16:48.853Z,-0.10
2023-01-17T18:19:20.358Z,-0.10
2023-01-17T18:21:47.079Z,-0.20
2023-01-17T18:24:14.126Z,-0.10
2023-01-17T18:26:42.068Z,-0.20
2023-01-17T18:29:10.457Z,-0.20
2023-01-17T18:31:37.357Z,-0.30
2023-01-17T18:34:05.929Z,-0.30
2023-01-17T18:36:34.805Z,-0.30
2023-01-17T18:39:02.280Z,-0.30
2023-01-17T18:41:29.677Z,-0.40
2023-01-17T18:43:56.308Z,-0.30
2023-01-17T18:46:23.719Z,-0.30
2023-01-17T18:48:50.417Z,-0.40
2023-01-17T18:51:18.251Z,-0.30
2023-01-17T18:53:45.588Z,-1.70
2023-01-17T18:56:13.944Z,-0.30
2023-01-17T18:58:41.791Z,-0.30
2023-01-17T19:01:10.271Z,-0.30
2023-01-17T19:03:37.503Z,-0.40
2023-01-17T19:06:05.205Z,-0.30
2023-01-17T19:08:32.840Z,-0.40
2023-01-17T19:10:59.905Z,-0.30
2023-01-17T19:13:26.911Z,-0.30
2023-01-17T19:15:53.588Z,-0.30
2023-01-17T19:18:20.245Z,-0.30
2023-01-17T19:20:47.015Z,-0.30
2023-01-17T19:23:13.631Z,-0.30
2023-01-17T19:25:40.207Z,-0.30
2023-01-17T19:28:06.913Z,-0.40
2023-01-17T19:30:34.353Z,-0.30
2023-01-17T19:33:01.004Z,-0.40
2023-01-17T19:35:27.751Z,-0.30
2023-01-17T19:37:55.824Z,-0.30
2023-01-17T19:40:22.677Z,-0.30
2023-01-17T19:42:49.466Z,-0.30
2023-01-17T19:45:16.225Z,-0.40
2023-01-17T19:47:42.854Z,-0.50
2023-01-17T19:50:12.151Z,-0.50
2023-01-17T19:52:39.489Z,-0.50
2023-01-17T19:55:11.080Z,-0.40
2023-01-17T19:57:37.878Z,-0.50
2023-01-17T20:00:05.849Z,-0.40
2023-01-17T20:02:34.831Z,-0.40
2023-01-17T20:05:01.779Z,-0.40
2023-01-17T20:07:28.449Z,-0.40
2023-01-17T20:09:55.090Z,-0.40
2023-01-17T20:12:21.671Z,-0.40
2023-01-17T20:14:49.805Z,-0.40
2023-01-17T20:17:16.592Z,-0.40
2023-01-17T20:19:43.165Z,-0.40
2023-01-17T20:22:09.725Z,-0.40
2023-01-17T20:24:36.540Z,-0.40
2023-01-17T20:27:03.256Z,-0.40
2023-01-17T20:29:29.906Z,-0.50
2023-01-17T20:31:56.568Z,-0.50
2023-01-17T20:34:25.684Z,-0.50
2023-01-17T20:36:54.254Z,-0.50
2023-01-17T20:39:20.892Z,0.80
2023-01-17T20:41:49.301Z,-0.50
2023-01-17T20:44:16.090Z,-0.50
2023-01-17T20:46:42.784Z,-0.60
2023-01-17T20:49:15.071Z,-0.60
2023-01-17T20:51:44.064Z,-0.60
2023-01-17T20:54:12.972Z,-0.60
2023-01-17T20:56:40.377Z,-0.60
2023-01-17T20:59:09.325Z,-0.60
2023-01-17T21:01:36.704Z,-0.60
2023-01-17T21:04:03.758Z,-0.60
2023-01-17T21:06:30.380Z,-0.60
2023-01-17T21:08:57.027Z,-0.60
2023-01-17T21:11:25.244Z,-0.60
2023-01-17T21:13:51.955Z,-0.60
2023-01-17T21:16:20.321Z,-0.60
2023-01-17T21:18:47.821Z,-0.60
2023-01-17T21:21:16.974Z,-0.60
2023-01-17T21:23:44.111Z,-0.60
2023-01-17T21:26:15.498Z,-0.60
2023-01-17T21:28:43.301Z,-0.60
2023-01-17T21:31:20.380Z,-0.60
2023-01-17T21:33:47.630Z,-0.60
2023-01-17T21:36:14.378Z,-0.50
2023-01-17T21:38:41.034Z,-0.60
2023-01-17T21:41:07.722Z,-0.60
2023-01-17T21:43:34.321Z,-0.60
2023-01-17T21:46:01.805Z,-0.60
2023-01-17T21:48:28.502Z,-0.60
2023-01-17T21:50:55.127Z,-0.60
2023-01-17T21:53:21.780Z,-0.60
2023-01-17T21:56:07.040Z,-0.60
2023-01-17T21:58:45.914Z,-0.60
2023-01-17T22:01:19.233Z,-0.50
2023-01-17T22:03:48.429Z,-0.60
2023-01-17T22:06:15.085Z,-0.50
2023-01-17T22:08:41.730Z,-0.50
2023-01-17T22:11:10.873Z,-0.50
2023-01-17T22:13:38.405Z,-0.50
2023-01-17T22:16:06.363Z,-0.50
2023-01-17T22:18:35.911Z,-0.50
2023-01-17T22:21:08.561Z,-0.50
2023-01-17T22:23:35.404Z,-0.50
2023-01-17T22:26:06.227Z,-0.50
2023-01-17T22:28:33.200Z,-0.50
2023-01-17T22:31:26.088Z,-0.50
2023-01-17T22:33:56.876Z,-0.50
2023-01-17T22:36:23.515Z,-0.40
2023-01-17T22:38:50.632Z,-0.30
2023-01-17T22:41:19.967Z,-0.30
2023-01-17T22:43:51.140Z,-0.40
2023-01-17T22:46:19.274Z,-0.40
2023-01-17T22:48:46.344Z,-0.40
2023-01-17T22:51:13.892Z,-0.40
2023-01-17T22:53:41.401Z,-0.40
2023-01-17T22:56:09.193Z,-0.50
2023-01-17T22:58:35.823Z,-0.50
2023-01-17T23:01:10.816Z,-0.50
2023-01-17T23:03:38.070Z,-0.50
2023-01-17T23:06:09.186Z,-0.50
2023-01-17T23:08:36.371Z,-0.50
2023-01-17T23:11:22.205Z,-0.50
2023-01-17T23:13:48.897Z,-0.40
2023-01-17T23:16:34.245Z,-0.40
2023-01-17T23:19:19.323Z,-0.40
2023-01-17T23:22:04.489Z,-0.40
2023-01-17T23:24:31.100Z,-0.50
2023-01-17T23:27:16.616Z,-0.40
2023-01-17T23:29:43.268Z,-0.50
2023-01-17T23:32:09.915Z,-0.50
2023-01-17T23:34:36.509Z,-0.50
2023-01-17T23:37:03.251Z,-0.50
2023-01-17T23:39:29.897Z,-0.50
2023-01-17T23:42:15.178Z,-0.50
2023-01-17T23:44:41.825Z,-0.50
2023-01-17T23:47:08.606Z,-0.50
2023-01-17T23:49:35.274Z,-0.50
2023-01-17T23:52:01.847Z,-0.50
2023-01-17T23:54:28.471Z,-0.40
2023-01-17T23:56:55.078Z,-0.40
2023-01-17T23:59:21.714Z,-0.40
